createdAt,value
2022-08-31T00:01:10.769Z,102061.47
2022-08-31T00:04:00.368Z,102062.59
2022-08-31T00:06:45.937Z,102051.34
2022-08-31T00:09:37.083Z,102048.44
2022-08-31T00:12:22.486Z,102059.09
2022-08-31T00:15:09.576Z,102053.38
2022-08-31T00:17:56.169Z,102059.78
2022-08-31T00:20:41.730Z,102065.09
2022-08-31T00:23:27.366Z,102071.53
2022-08-31T00:26:12.855Z,102069.56
2022-08-31T00:28:58.272Z,102064.47
2022-08-31T00:31:43.345Z,102065.41
2022-08-31T00:34:28.628Z,102058.38
2022-08-31T00:37:14.208Z,102055.16
2022-08-31T00:39:59.358Z,102056.78
2022-08-31T00:42:44.435Z,102054.97
2022-08-31T00:45:29.987Z,102057.38
2022-08-31T00:48:15.484Z,102061.25
2022-08-31T00:51:01.245Z,102061.53
2022-08-31T00:53:48.043Z,102072.47
2022-08-31T00:56:37.223Z,102072.72
2022-08-31T00:59:23.293Z,102071.91
2022-08-31T01:02:09.165Z,102081.66
2022-08-31T01:04:54.596Z,102083.56
2022-08-31T01:07:40.610Z,102079.50
2022-08-31T01:10:28.713Z,102079.38
2022-08-31T01:13:15.397Z,102084.38
2022-08-31T01:16:03.373Z,102085.84
2022-08-31T01:18:51.553Z,102086.94
2022-08-31T01:22:02.827Z,102088.91
2022-08-31T01:24:49.110Z,102091.59
2022-08-31T01:27:36.042Z,102093.91
2022-08-31T01:30:22.838Z,102094.75
2022-08-31T01:33:09.188Z,102094.09
2022-08-31T01:35:55.180Z,102088.38
2022-08-31T01:38:40.519Z,102096.09
2022-08-31T01:41:25.712Z,102090.44
2022-08-31T01:44:16.174Z,102088.56
2022-08-31T01:47:01.764Z,102084.34
2022-08-31T01:49:46.925Z,102092.88
2022-08-31T01:52:34.079Z,102091.22
2022-08-31T01:55:19.363Z,102091.03
2022-08-31T01:58:05.761Z,102092.22
2022-08-31T02:00:51.225Z,102091.34
2022-08-31T02:03:36.696Z,102086.97
2022-08-31T02:06:22.110Z,102093.81
2022-08-31T02:09:08.164Z,102085.28
2022-08-31T02:11:53.618Z,102089.28
2022-08-31T02:14:38.911Z,102087.38
2022-08-31T02:17:24.484Z,102092.66
2022-08-31T02:20:11.179Z,102085.28
2022-08-31T02:22:56.462Z,102089.72
2022-08-31T02:25:41.732Z,102089.22
2022-08-31T02:28:27.271Z,102085.25
2022-08-31T02:31:12.733Z,102086.91
2022-08-31T02:33:58.269Z,102079.00
2022-08-31T02:36:45.168Z,102081.63
2022-08-31T02:39:30.281Z,102078.53
2022-08-31T02:42:15.607Z,102074.34
2022-08-31T02:45:04.238Z,102084.97
2022-08-31T02:47:49.453Z,102082.06
2022-08-31T02:50:38.140Z,102085.91
2022-08-31T02:53:24.037Z,102081.59
2022-08-31T02:56:09.520Z,102080.81
2022-08-31T02:58:55.419Z,102079.22
2022-08-31T03:01:40.875Z,102087.09
2022-08-31T03:04:26.251Z,102078.34
2022-08-31T03:07:11.814Z,102086.22
2022-08-31T03:09:57.560Z,102075.09
2022-08-31T03:12:43.144Z,102072.44
2022-08-31T03:15:28.924Z,102074.13
2022-08-31T03:18:14.172Z,102066.13
2022-08-31T03:20:59.560Z,102060.22
2022-08-31T03:23:44.824Z,102069.84
2022-08-31T03:26:30.229Z,102073.59
2022-08-31T03:29:15.647Z,102071.94
2022-08-31T03:32:01.307Z,102076.28
2022-08-31T03:34:46.709Z,102075.66
2022-08-31T03:37:32.307Z,102062.78
2022-08-31T03:40:17.548Z,102085.31
2022-08-31T03:43:02.897Z,102086.22
2022-08-31T03:45:49.500Z,102085.91
2022-08-31T03:48:34.719Z,102095.00
2022-08-31T03:51:20.318Z,102098.41
2022-08-31T03:54:05.974Z,102113.31
2022-08-31T03:56:51.430Z,102103.94
2022-08-31T03:59:38.736Z,102094.47
2022-08-31T04:02:24.466Z,102105.72
2022-08-31T04:05:10.081Z,102108.47
2022-08-31T04:07:55.680Z,102101.75
2022-08-31T04:10:41.989Z,102102.63
2022-08-31T04:13:30.181Z,102099.91
2022-08-31T04:16:17.640Z,102092.09
2022-08-31T04:19:03.879Z,102107.63
2022-08-31T04:21:53.430Z,102102.63
2022-08-31T04:24:38.700Z,102106.38
2022-08-31T04:27:24.116Z,102107.34
2022-08-31T04:30:09.929Z,102116.19
2022-08-31T04:32:56.918Z,102104.59
2022-08-31T04:35:42.383Z,102106.50
2022-08-31T04:38:27.585Z,102108.19
2022-08-31T04:41:13.943Z,102108.25
2022-08-31T04:44:00.202Z,102106.44
2022-08-31T04:46:45.772Z,102121.25
2022-08-31T04:49:30.862Z,102113.41
2022-08-31T04:52:16.346Z,102114.25
2022-08-31T04:55:02.825Z,102120.22
2022-08-31T04:57:47.888Z,102114.03
2022-08-31T05:00:37.104Z,102113.78
2022-08-31T05:03:22.947Z,102112.84
2022-08-31T05:06:12.761Z,102115.31
2022-08-31T05:08:59.912Z,102123.06
2022-08-31T05:11:45.801Z,102128.13
2022-08-31T05:14:31.128Z,102119.63
2022-08-31T05:17:16.998Z,102117.97
2022-08-31T05:20:02.620Z,102126.44
2022-08-31T05:22:47.488Z,102129.63
2022-08-31T05:25:33.264Z,102129.41
2022-08-31T05:28:23.353Z,102137.03
2022-08-31T05:31:08.550Z,102138.47
2022-08-31T05:33:53.772Z,102143.44
2022-08-31T05:36:39.876Z,102138.69
2022-08-31T05:39:26.056Z,102147.13
2022-08-31T05:42:15.234Z,102153.69
2022-08-31T05:45:00.940Z,102155.66
2022-08-31T05:47:46.296Z,102148.91
2022-08-31T05:50:31.860Z,102154.63
2022-08-31T05:53:17.966Z,102160.16
2022-08-31T05:56:10.047Z,102156.44
2022-08-31T05:58:55.735Z,102156.28
2022-08-31T06:01:41.685Z,102160.38
2022-08-31T06:04:27.516Z,102152.25
2022-08-31T06:07:12.989Z,102153.34
2022-08-31T06:09:58.384Z,102151.38
2022-08-31T06:12:44.027Z,102149.97
2022-08-31T06:15:29.637Z,102152.84
2022-08-31T06:18:14.776Z,102150.78
2022-08-31T06:21:00.778Z,102154.03
2022-08-31T06:23:47.081Z,102145.44
2022-08-31T06:26:34.237Z,102144.41
2022-08-31T06:29:20.646Z,102157.53
2022-08-31T06:32:10.931Z,102151.66
2022-08-31T06:34:56.370Z,102145.47
2022-08-31T06:37:41.472Z,102143.44
2022-08-31T06:40:27.065Z,102143.88
2022-08-31T06:43:12.300Z,102144.88
2022-08-31T06:45:58.021Z,102146.75
2022-08-31T06:48:43.859Z,102146.22
2022-08-31T06:51:36.224Z,102143.72
2022-08-31T06:54:30.250Z,102144.81
2022-08-31T06:57:16.466Z,102144.22
2022-08-31T07:00:02.042Z,102146.63
2022-08-31T07:02:53.172Z,102150.75
2022-08-31T07:05:42.571Z,102156.50
2022-08-31T07:08:28.052Z,102155.97
2022-08-31T07:11:15.712Z,102152.84
2022-08-31T07:14:01.537Z,102153.75
2022-08-31T07:16:47.503Z,102154.94
2022-08-31T07:19:32.669Z,102156.75
2022-08-31T07:22:18.002Z,102158.44
2022-08-31T07:25:03.560Z,102158.00
2022-08-31T07:27:55.444Z,102156.03
2022-08-31T07:30:42.098Z,102150.66
2022-08-31T07:33:27.641Z,102150.75
2022-08-31T07:36:14.712Z,102160.22
2022-08-31T07:39:18.978Z,102162.53
2022-08-31T07:42:11.711Z,102165.53
2022-08-31T07:44:58.072Z,102164.84
2022-08-31T07:47:47.880Z,102163.13
2022-08-31T07:50:33.152Z,102169.06
2022-08-31T07:53:21.107Z,102166.75
2022-08-31T07:56:07.873Z,102161.56
2022-08-31T07:58:53.390Z,102168.94
2022-08-31T08:01:41.190Z,102172.59
2022-08-31T08:04:26.355Z,102169.22
2022-08-31T08:07:12.349Z,102171.00
2022-08-31T08:09:57.793Z,102167.19
2022-08-31T08:12:44.303Z,102175.28
2022-08-31T08:15:29.768Z,102164.06
2022-08-31T08:18:15.341Z,102177.50
2022-08-31T08:21:00.884Z,102174.44
2022-08-31T08:23:45.987Z,102170.88
2022-08-31T08:26:31.675Z,102157.47
2022-08-31T08:29:18.096Z,102159.47
2022-08-31T08:32:03.472Z,102163.16
2022-08-31T08:34:48.920Z,102164.50
2022-08-31T08:37:56.651Z,102162.06
2022-08-31T08:40:42.505Z,102153.03
2022-08-31T08:43:35.536Z,102163.41
2022-08-31T08:46:41.314Z,102160.47
2022-08-31T08:49:35.238Z,102155.63
2022-08-31T08:52:20.387Z,102159.19
2022-08-31T08:55:08.797Z,102167.19
2022-08-31T08:57:55.952Z,102153.78
2022-08-31T09:00:46.365Z,102150.94
2022-08-31T09:03:44.293Z,102165.31
2022-08-31T09:06:45.421Z,102152.06
2022-08-31T09:09:47.041Z,102153.78
2022-08-31T09:12:43.169Z,102157.66
2022-08-31T09:15:37.311Z,102156.63
2022-08-31T09:18:28.004Z,102154.34
2022-08-31T09:21:25.231Z,102148.22
2022-08-31T09:24:12.944Z,102153.53
2022-08-31T09:27:11.281Z,102154.00
2022-08-31T09:29:58.112Z,102150.41
2022-08-31T09:32:53.693Z,102149.81
2022-08-31T09:35:42.074Z,102153.94
2022-08-31T09:38:31.497Z,102153.63
2022-08-31T09:41:29.417Z,102159.19
2022-08-31T09:44:23.981Z,102141.56
2022-08-31T09:47:40.349Z,102138.78
2022-08-31T09:50:27.322Z,102133.97
2022-08-31T09:53:31.548Z,102145.06
2022-08-31T09:56:21.832Z,102154.38
2022-08-31T09:59:07.111Z,102139.63
2022-08-31T10:01:54.048Z,102139.44
2022-08-31T10:04:47.760Z,102138.75
2022-08-31T10:07:33.202Z,102136.47
2022-08-31T10:10:30.974Z,102150.41
2022-08-31T10:13:21.930Z,102139.91
2022-08-31T10:16:14.624Z,102138.88
2022-08-31T10:19:07.488Z,102136.34
2022-08-31T10:21:59.896Z,102134.31
2022-08-31T10:24:47.933Z,102143.56
2022-08-31T10:27:38.606Z,102139.91
2022-08-31T10:30:24.052Z,102127.31
2022-08-31T10:33:48.443Z,102131.91
2022-08-31T10:36:37.707Z,102125.00
2022-08-31T10:39:23.129Z,102130.00
2022-08-31T10:42:11.827Z,102128.63
2022-08-31T10:45:01.172Z,102124.13
2022-08-31T10:47:49.023Z,102120.19
2022-08-31T10:50:40.169Z,102120.81
2022-08-31T10:53:35.935Z,102116.31
2022-08-31T10:56:35.460Z,102114.03
2022-08-31T10:59:33.495Z,102110.44
2022-08-31T11:02:27.926Z,102107.28
2022-08-31T11:05:22.853Z,102101.09
2022-08-31T11:08:13.817Z,102098.19
2022-08-31T11:10:59.555Z,102102.31
2022-08-31T11:13:49.552Z,102102.19
2022-08-31T11:16:46.754Z,102108.28
2022-08-31T11:19:41.428Z,102097.63
2022-08-31T11:22:37.441Z,102090.81
2022-08-31T11:25:35.298Z,102084.09
2022-08-31T11:28:32.031Z,102083.69
2022-08-31T11:31:25.600Z,102075.41
2022-08-31T11:34:16.301Z,102070.06
2022-08-31T11:37:09.138Z,102071.63
2022-08-31T11:39:54.385Z,102077.03
2022-08-31T11:42:39.559Z,102078.47
2022-08-31T11:45:31.123Z,102065.19
2022-08-31T11:48:37.660Z,102060.53
2022-08-31T11:51:45.345Z,102059.50
2022-08-31T11:54:38.084Z,102051.75
2022-08-31T11:57:25.321Z,102054.13
2022-08-31T12:00:19.847Z,102056.66
2022-08-31T12:03:09.420Z,102044.72
2022-08-31T12:05:57.901Z,102047.59
2022-08-31T12:08:52.628Z,102033.78
2022-08-31T12:11:47.643Z,102031.72
2022-08-31T12:14:39.249Z,102022.34
2022-08-31T12:17:35.104Z,102031.50
2022-08-31T12:20:23.179Z,102024.25
2022-08-31T12:23:40.629Z,102022.44
2022-08-31T12:26:50.582Z,102025.81
2022-08-31T12:29:37.031Z,102024.50
2022-08-31T12:32:27.305Z,102017.59
2022-08-31T12:35:12.268Z,102014.84
2022-08-31T12:38:03.157Z,102009.13
2022-08-31T12:40:51.003Z,102009.56
2022-08-31T12:43:38.716Z,102012.53
2022-08-31T12:46:31.829Z,102020.56
2022-08-31T12:49:35.320Z,102016.78
2022-08-31T12:52:29.288Z,102002.75
2022-08-31T12:55:28.138Z,102006.81
2022-08-31T12:58:19.487Z,101999.03
2022-08-31T13:01:10.435Z,101998.56
2022-08-31T13:04:00.436Z,102006.31
2022-08-31T13:06:48.187Z,101980.88
2022-08-31T13:09:35.548Z,101982.00
2022-08-31T13:12:23.051Z,101977.19
2022-08-31T13:15:21.102Z,101973.16
2022-08-31T13:18:26.379Z,101977.25
2022-08-31T13:21:12.525Z,101977.84
2022-08-31T13:24:10.502Z,101971.31
2022-08-31T13:27:05.805Z,101978.38
2022-08-31T13:29:53.505Z,101969.94
2022-08-31T13:32:40.805Z,101961.53
2022-08-31T13:35:33.592Z,101956.19
2022-08-31T13:38:29.048Z,101959.84
2022-08-31T13:41:17.700Z,101952.53
2022-08-31T13:44:05.355Z,101955.53
2022-08-31T13:47:00.085Z,101958.41
2022-08-31T13:49:45.980Z,101958.34
2022-08-31T13:52:31.368Z,101952.94
2022-08-31T13:55:37.090Z,101943.72
2022-08-31T13:58:26.102Z,101956.53
2022-08-31T14:01:23.710Z,101945.38
2022-08-31T14:04:34.326Z,101955.50
2022-08-31T14:07:24.477Z,101957.59
2022-08-31T14:10:14.914Z,101957.63
2022-08-31T14:13:06.921Z,101948.34
2022-08-31T14:15:54.845Z,101954.00
2022-08-31T14:18:42.866Z,101945.75
2022-08-31T14:21:29.920Z,101933.22
2022-08-31T14:24:16.490Z,101936.75
2022-08-31T14:27:02.237Z,101933.25
2022-08-31T14:29:47.681Z,101939.47
2022-08-31T14:32:33.241Z,101918.06
2022-08-31T14:35:18.682Z,101923.41
2022-08-31T14:38:04.335Z,101938.41
2022-08-31T14:40:49.885Z,101927.81
2022-08-31T14:43:35.535Z,101924.06
2022-08-31T14:46:27.800Z,101944.94
2022-08-31T14:49:12.886Z,101926.44
2022-08-31T14:52:03.065Z,101943.56
2022-08-31T14:54:48.500Z,101936.34
2022-08-31T14:57:33.953Z,101934.19
2022-08-31T15:00:23.121Z,101947.31
2022-08-31T15:03:09.415Z,101934.16
2022-08-31T15:05:54.963Z,101933.03
2022-08-31T15:08:41.332Z,101930.94
2022-08-31T15:11:26.827Z,101933.28
2022-08-31T15:14:12.402Z,101927.41
2022-08-31T15:17:03.230Z,101925.69
2022-08-31T15:19:51.423Z,101913.16
2022-08-31T15:22:40.371Z,101913.59
2022-08-31T15:25:26.201Z,101917.53
2022-08-31T15:28:11.454Z,101919.50
2022-08-31T15:30:57.808Z,101926.81
2022-08-31T15:33:49.203Z,101930.25
2022-08-31T15:36:36.020Z,101935.75
2022-08-31T15:39:22.596Z,101937.63
2022-08-31T15:42:11.244Z,101926.19
2022-08-31T15:44:57.192Z,101926.81
2022-08-31T15:48:01.212Z,101920.03
2022-08-31T15:50:52.589Z,101921.72
2022-08-31T15:53:42.654Z,101911.81
2022-08-31T15:56:29.364Z,101919.66
2022-08-31T15:59:14.779Z,101919.47
2022-08-31T16:02:01.279Z,101916.03
2022-08-31T16:04:48.250Z,101914.22
2022-08-31T16:07:34.852Z,101902.34
2022-08-31T16:10:20.551Z,101905.78
2022-08-31T16:13:07.182Z,101905.03
2022-08-31T16:15:53.147Z,101908.94
2022-08-31T16:18:38.348Z,101898.00
2022-08-31T16:21:25.453Z,101902.69
2022-08-31T16:24:14.100Z,101897.19
2022-08-31T16:27:00.534Z,101888.06
2022-08-31T16:29:46.404Z,101889.91
2022-08-31T16:32:31.766Z,101887.41
2022-08-31T16:35:17.311Z,101889.22
2022-08-31T16:38:03.043Z,101897.22
2022-08-31T16:40:48.881Z,101897.38
2022-08-31T16:43:34.195Z,101895.97
2022-08-31T16:46:40.100Z,101892.38
2022-08-31T16:49:33.712Z,101888.66
2022-08-31T16:52:21.455Z,101896.78
2022-08-31T16:55:07.106Z,101893.19
2022-08-31T16:57:52.328Z,101891.09
2022-08-31T17:00:38.077Z,101894.94
2022-08-31T17:03:23.689Z,101901.47
2022-08-31T17:06:09.192Z,101902.69
2022-08-31T17:08:59.146Z,101887.53
2022-08-31T17:11:49.184Z,101902.88
2022-08-31T17:14:36.138Z,101889.31
2022-08-31T17:17:22.947Z,101895.84
2022-08-31T17:20:08.804Z,101903.75
2022-08-31T17:22:54.459Z,101899.53
2022-08-31T17:25:39.999Z,101910.84
2022-08-31T17:28:26.094Z,101909.31
2022-08-31T17:31:11.718Z,101910.25
2022-08-31T17:33:58.258Z,101917.72
2022-08-31T17:36:45.893Z,101923.47
2022-08-31T17:39:31.049Z,101913.25
2022-08-31T17:42:19.823Z,101914.19
2022-08-31T17:45:06.358Z,101914.00
2022-08-31T17:47:54.856Z,101919.47
2022-08-31T17:50:43.542Z,101921.66
2022-08-31T17:53:29.179Z,101920.41
2022-08-31T17:56:15.663Z,101920.47
2022-08-31T17:59:01.291Z,101919.97
2022-08-31T18:01:47.724Z,101924.97
2022-08-31T18:04:34.845Z,101932.16
2022-08-31T18:07:20.274Z,101934.28
2022-08-31T18:10:05.522Z,101935.72
2022-08-31T18:12:51.045Z,101944.69
2022-08-31T18:15:36.239Z,101943.63
2022-08-31T18:18:21.913Z,101950.66
2022-08-31T18:21:07.731Z,101944.97
2022-08-31T18:23:53.202Z,101946.50
2022-08-31T18:26:40.166Z,101949.09
2022-08-31T18:29:26.725Z,101952.50
2022-08-31T18:32:12.612Z,101955.16
2022-08-31T18:34:58.129Z,101953.09
2022-08-31T18:37:44.740Z,101962.88
2022-08-31T18:40:49.019Z,101962.94
2022-08-31T18:43:53.291Z,101966.00
2022-08-31T18:46:45.061Z,101962.03
2022-08-31T18:49:34.837Z,101963.47
2022-08-31T18:52:22.917Z,101973.19
2022-08-31T18:55:08.455Z,101962.84
2022-08-31T18:57:54.163Z,101972.91
2022-08-31T19:00:40.374Z,101966.28
2022-08-31T19:03:27.780Z,101972.66
2022-08-31T19:06:23.536Z,101974.53
2022-08-31T19:09:09.977Z,101977.69
2022-08-31T19:12:02.353Z,101984.41
2022-08-31T19:14:50.419Z,101991.06
2022-08-31T19:17:36.261Z,101992.19
2022-08-31T19:20:21.986Z,101999.31
2022-08-31T19:23:08.286Z,101997.81
2022-08-31T19:25:54.842Z,101994.56
2022-08-31T19:28:41.327Z,101999.75
2022-08-31T19:31:27.978Z,101992.81
2022-08-31T19:34:15.980Z,102000.94
2022-08-31T19:37:02.017Z,101986.44
2022-08-31T19:39:47.850Z,102011.97
2022-08-31T19:42:59.477Z,102007.16
2022-08-31T19:45:43.289Z,102008.94
2022-08-31T19:48:33.101Z,102007.34
2022-08-31T19:51:29.808Z,102007.53
2022-08-31T19:54:16.436Z,102009.59
2022-08-31T19:57:03.705Z,102005.72
2022-08-31T19:59:49.990Z,102006.34
2022-08-31T20:02:36.360Z,102009.69
2022-08-31T20:05:22.283Z,102005.59
2022-08-31T20:08:08.598Z,102007.03
2022-08-31T20:10:53.868Z,102006.34
2022-08-31T20:13:40.523Z,102006.59
2022-08-31T20:16:33.240Z,102006.66
2022-08-31T20:19:24.828Z,102009.00
2022-08-31T20:22:10.777Z,102013.53
2022-08-31T20:24:58.298Z,102011.19
2022-08-31T20:27:44.783Z,102012.78
2022-08-31T20:30:38.945Z,102015.38
2022-08-31T20:33:26.018Z,102022.81
2022-08-31T20:36:18.856Z,102022.34
2022-08-31T20:39:07.797Z,102021.50
2022-08-31T20:41:54.510Z,102028.25
2022-08-31T20:44:39.881Z,102027.47
2022-08-31T20:47:43.882Z,102031.63
2022-08-31T20:50:29.650Z,102029.72
2022-08-31T20:53:15.322Z,102031.19
2022-08-31T20:56:05.961Z,102037.66
2022-08-31T20:58:51.516Z,102036.19
2022-08-31T21:01:37.588Z,102034.63
2022-08-31T21:04:23.136Z,102044.50
2022-08-31T21:07:11.821Z,102038.16
2022-08-31T21:09:58.604Z,102041.44
2022-08-31T21:12:43.975Z,102035.28
2022-08-31T21:15:29.572Z,102046.31
2022-08-31T21:18:17.269Z,102033.50
2022-08-31T21:21:05.472Z,102052.03
2022-08-31T21:23:50.943Z,102044.25
2022-08-31T21:26:39.565Z,102049.03
2022-08-31T21:29:25.283Z,102049.00
2022-08-31T21:32:10.509Z,102047.47
2022-08-31T21:34:56.645Z,102049.78
2022-08-31T21:37:42.202Z,102049.88
2022-08-31T21:40:29.393Z,102042.28
2022-08-31T21:43:14.906Z,102047.88
2022-08-31T21:46:01.694Z,102053.66
2022-08-31T21:48:47.235Z,102052.75
2022-08-31T21:51:34.461Z,102061.94
2022-08-31T21:54:21.337Z,102056.03
2022-08-31T21:57:06.604Z,102067.78
2022-08-31T21:59:52.220Z,102069.88
2022-08-31T22:02:37.653Z,102070.91
2022-08-31T22:05:22.852Z,102073.31
2022-08-31T22:08:08.272Z,102070.84
2022-08-31T22:10:54.861Z,102074.59
2022-08-31T22:13:41.041Z,102070.38
2022-08-31T22:16:26.986Z,102071.16
2022-08-31T22:19:13.822Z,102078.34
2022-08-31T22:21:59.496Z,102076.69
2022-08-31T22:24:45.283Z,102084.16
2022-08-31T22:27:30.607Z,102076.34
2022-08-31T22:30:16.302Z,102076.53
2022-08-31T22:33:02.259Z,102088.06
2022-08-31T22:35:47.721Z,102088.25
2022-08-31T22:38:34.694Z,102088.16
2022-08-31T22:41:20.032Z,102083.41
2022-08-31T22:44:06.373Z,102085.00
2022-08-31T22:46:52.075Z,102082.84
2022-08-31T22:49:37.512Z,102082.91
2022-08-31T22:52:22.631Z,102084.81
2022-08-31T22:55:08.988Z,102089.81
2022-08-31T22:57:54.508Z,102086.75
2022-08-31T23:00:39.932Z,102091.28
2022-08-31T23:03:27.081Z,102073.38
2022-08-31T23:06:12.535Z,102092.19
2022-08-31T23:08:58.265Z,102088.78
2022-08-31T23:11:43.386Z,102088.75
2022-08-31T23:14:29.328Z,102081.53
2022-08-31T23:17:16.686Z,102087.03
2022-08-31T23:20:05.080Z,102081.81
2022-08-31T23:22:51.705Z,102085.53
2022-08-31T23:25:38.638Z,102088.53
2022-08-31T23:28:23.813Z,102082.53
2022-08-31T23:31:09.451Z,102078.94
2022-08-31T23:33:54.833Z,102080.81
2022-08-31T23:36:41.566Z,102074.00
2022-08-31T23:39:27.162Z,102073.69
2022-08-31T23:42:13.778Z,102074.69
2022-08-31T23:44:59.649Z,102069.47
2022-08-31T23:47:44.824Z,102077.44
2022-08-31T23:50:30.467Z,102069.69
2022-08-31T23:53:17.265Z,102078.28
2022-08-31T23:56:08.920Z,102076.69
2022-08-31T23:58:54.151Z,102073.78
